sensor_id;sensor_type;location;lat;lon;timestamp;pressure;altitude;pressure_sealevel;temperature;humidity
10476;BME280;26166;48.264;11.436;2023-09-08T00:01:42;96500.25;;;19.91;59.09
10476;BME280;26166;48.264;11.436;2023-09-08T00:04:42;96502.13;;;19.91;59.34
10476;BME280;26166;48.264;11.436;2023-09-08T00:07:42;96503.75;;;19.92;59.19
10476;BME280;26166;48.264;11.436;2023-09-08T00:10:46;96502.50;;;19.95;59.16
10476;BME280;26166;48.264;11.436;2023-09-08T00:13:46;96503.31;;;19.95;59.12
10476;BME280;26166;48.264;11.436;2023-09-08T00:16:46;96502.50;;;19.95;58.91
10476;BME280;26166;48.264;11.436;2023-09-08T00:19:53;96497.16;;;19.95;58.84
10476;BME280;26166;48.264;11.436;2023-09-08T00:22:53;96497.16;;;19.95;58.94
10476;BME280;26166;48.264;11.436;2023-09-08T00:25:53;96505.16;;;19.95;58.66
10476;BME280;26166;48.264;11.436;2023-09-08T00:28:53;96504.59;;;19.93;58.68
10476;BME280;26166;48.264;11.436;2023-09-08T00:31:53;96491.03;;;19.94;58.75
10476;BME280;26166;48.264;11.436;2023-09-08T00:34:54;96493.91;;;19.93;58.74
10476;BME280;26166;48.264;11.436;2023-09-08T00:38:10;96495.75;;;19.92;58.64
10476;BME280;26166;48.264;11.436;2023-09-08T00:41:10;96491.25;;;19.93;58.68
10476;BME280;26166;48.264;11.436;2023-09-08T00:44:11;96493.91;;;19.93;58.84
10476;BME280;26166;48.264;11.436;2023-09-08T00:47:11;96490.22;;;19.94;58.77
10476;BME280;26166;48.264;11.436;2023-09-08T00:50:11;96491.25;;;19.93;58.68
10476;BME280;26166;48.264;11.436;2023-09-08T00:53:12;96487.75;;;19.92;58.51
10476;BME280;26166;48.264;11.436;2023-09-08T00:56:12;96486.94;;;19.91;58.81
10476;BME280;26166;48.264;11.436;2023-09-08T00:59:12;96484.06;;;19.93;58.80
10476;BME280;26166;48.264;11.436;2023-09-08T01:02:13;96490.22;;;19.94;58.59
10476;BME280;26166;48.264;11.436;2023-09-08T01:05:13;96487.53;;;19.94;58.62
10476;BME280;26166;48.264;11.436;2023-09-08T01:08:14;96491.44;;;19.91;58.69
10476;BME280;26166;48.264;11.436;2023-09-08T01:11:15;96489.59;;;19.91;58.63
10476;BME280;26166;48.264;11.436;2023-09-08T01:14:17;96493.91;;;19.93;58.71
10476;BME280;26166;48.264;11.436;2023-09-08T01:17:18;96495.53;;;19.94;58.40
10476;BME280;26166;48.264;11.436;2023-09-08T01:20:27;96496.59;;;19.93;58.46
10476;BME280;26166;48.264;11.436;2023-09-08T01:26:44;96492.88;;;19.94;58.50
10476;BME280;26166;48.264;11.436;2023-09-08T01:29:45;96494.72;;;19.93;58.26
10476;BME280;26166;48.264;11.436;2023-09-08T01:32:45;96484.06;;;19.93;58.21
10476;BME280;26166;48.264;11.436;2023-09-08T01:35:46;96489.41;;;19.93;58.55
10476;BME280;26166;48.264;11.436;2023-09-08T01:38:47;96485.91;;;19.93;58.26
10476;BME280;26166;48.264;11.436;2023-09-08T01:41:47;96487.75;;;19.92;57.97
10476;BME280;26166;48.264;11.436;2023-09-08T01:44:47;96489.84;;;19.90;58.10
10476;BME280;26166;48.264;11.436;2023-09-08T01:47:48;96488.22;;;19.89;58.01
10476;BME280;26166;48.264;11.436;2023-09-08T01:50:48;96482.06;;;19.88;57.81
10476;BME280;26166;48.264;11.436;2023-09-08T01:53:48;96480.22;;;19.89;57.67
10476;BME280;26166;48.264;11.436;2023-09-08T01:56:49;96475.69;;;19.89;57.83
10476;BME280;26166;48.264;11.436;2023-09-08T01:59:51;96469.75;;;19.87;57.80
10476;BME280;26166;48.264;11.436;2023-09-08T02:02:51;96475.06;;;19.87;57.70
10476;BME280;26166;48.264;11.436;2023-09-08T02:05:51;96469.75;;;19.87;57.62
10476;BME280;26166;48.264;11.436;2023-09-08T02:08:51;96469.75;;;19.87;57.78
10476;BME280;26166;48.264;11.436;2023-09-08T02:11:53;96478.78;;;19.86;57.63
10476;BME280;26166;48.264;11.436;2023-09-08T02:14:54;96478.19;;;19.84;57.94
10476;BME280;26166;48.264;11.436;2023-09-08T02:17:54;96474.50;;;19.85;57.88
10476;BME280;26166;48.264;11.436;2023-09-08T02:20:55;96475.06;;;19.87;57.75
10476;BME280;26166;48.264;11.436;2023-09-08T02:23:55;96477.75;;;19.87;57.65
10476;BME280;26166;48.264;11.436;2023-09-08T02:26:55;96473.44;;;19.86;57.61
10476;BME280;26166;48.264;11.436;2023-09-08T02:29:55;96476.94;;;19.87;57.68
10476;BME280;26166;48.264;11.436;2023-09-08T02:32:56;96465.47;;;19.86;57.56
10476;BME280;26166;48.264;11.436;2023-09-08T02:36:00;96465.47;;;19.86;57.47
10476;BME280;26166;48.264;11.436;2023-09-08T02:39:01;96463.59;;;19.87;57.51
10476;BME280;26166;48.264;11.436;2023-09-08T02:42:01;96469.16;;;19.85;57.79
10476;BME280;26166;48.264;11.436;2023-09-08T02:45:02;96462.78;;;19.86;57.47
10476;BME280;26166;48.264;11.436;2023-09-08T02:48:02;96470.19;;;19.84;57.60
10476;BME280;26166;48.264;11.436;2023-09-08T02:51:02;96465.91;;;19.83;57.38
10476;BME280;26166;48.264;11.436;2023-09-08T02:54:03;96466.72;;;19.84;57.41
10476;BME280;26166;48.264;11.436;2023-09-08T02:57:12;96470.19;;;19.84;57.44
10476;BME280;26166;48.264;11.436;2023-09-08T03:00:12;96470.19;;;19.84;57.41
10476;BME280;26166;48.264;11.436;2023-09-08T03:03:13;96468.59;;;19.83;57.46
10476;BME280;26166;48.264;11.436;2023-09-08T03:06:13;96463.44;;;19.82;57.41
10476;BME280;26166;48.264;11.436;2023-09-08T03:09:14;96473.31;;;19.81;57.42
10476;BME280;26166;48.264;11.436;2023-09-08T03:12:15;96469.81;;;19.81;57.58
10476;BME280;26166;48.264;11.436;2023-09-08T03:15:15;96469.72;;;19.69;57.32
10476;BME280;26166;48.264;11.436;2023-09-08T03:18:15;96474.50;;;19.60;57.88
10476;BME280;26166;48.264;11.436;2023-09-08T03:21:16;96464.66;;;19.61;57.75
10476;BME280;26166;48.264;11.436;2023-09-08T03:24:16;96462.19;;;19.59;57.64
10476;BME280;26166;48.264;11.436;2023-09-08T03:27:19;96468.16;;;19.61;57.70
10476;BME280;26166;48.264;11.436;2023-09-08T03:30:20;96466.31;;;19.62;57.67
10476;BME280;26166;48.264;11.436;2023-09-08T03:33:21;96458.91;;;19.64;57.71
10476;BME280;26166;48.264;11.436;2023-09-08T03:36:21;96459.31;;;19.61;57.39
10476;BME280;26166;48.264;11.436;2023-09-08T03:39:22;96466.59;;;19.47;57.58
10476;BME280;26166;48.264;11.436;2023-09-08T03:42:22;96469.31;;;19.40;57.77
10476;BME280;26166;48.264;11.436;2023-09-08T03:45:22;96475.06;;;19.37;57.75
10476;BME280;26166;48.264;11.436;2023-09-08T03:48:22;96475.06;;;19.37;57.78
10476;BME280;26166;48.264;11.436;2023-09-08T03:51:22;96480.41;;;19.37;57.76
10476;BME280;26166;48.264;11.436;2023-09-08T03:54:23;96480.41;;;19.37;57.78
10476;BME280;26166;48.264;11.436;2023-09-08T03:57:23;96478.78;;;19.36;57.73
10476;BME280;26166;48.264;11.436;2023-09-08T04:00:23;96479.34;;;19.38;57.64
10476;BME280;26166;48.264;11.436;2023-09-08T04:03:23;96482.03;;;19.38;57.64
10476;BME280;26166;48.264;11.436;2023-09-08T04:06:23;96476.69;;;19.38;57.72
10476;BME280;26166;48.264;11.436;2023-09-08T04:09:24;96485.31;;;19.40;57.67
10476;BME280;26166;48.264;11.436;2023-09-08T04:12:25;96489.81;;;19.40;57.58
10476;BME280;26166;48.264;11.436;2023-09-08T04:15:25;96485.31;;;19.40;57.60
10476;BME280;26166;48.264;11.436;2023-09-08T04:18:26;96483.69;;;19.39;57.35
10476;BME280;26166;48.264;11.436;2023-09-08T04:21:26;96483.69;;;19.39;57.20
10476;BME280;26166;48.264;11.436;2023-09-08T04:24:27;96475.88;;;19.38;57.45
10476;BME280;26166;48.264;11.436;2023-09-08T04:27:28;96477.72;;;19.37;57.55
10476;BME280;26166;48.264;11.436;2023-09-08T04:30:28;96478.78;;;19.36;57.68
10476;BME280;26166;48.264;11.436;2023-09-08T04:33:29;96479.19;;;19.33;57.74
10476;BME280;26166;48.264;11.436;2023-09-08T04:36:29;96469.34;;;19.34;57.69
10476;BME280;26166;48.264;11.436;2023-09-08T04:39:30;96477.16;;;19.35;57.68
10476;BME280;26166;48.264;11.436;2023-09-08T04:42:31;96471.81;;;19.35;57.56
10476;BME280;26166;48.264;11.436;2023-09-08T04:45:31;96473.06;;;19.33;57.80
10476;BME280;26166;48.264;11.436;2023-09-08T04:48:31;96475.72;;;19.33;57.76
10476;BME280;26166;48.264;11.436;2023-09-08T04:51:31;96474.91;;;19.32;57.65
10476;BME280;26166;48.264;11.436;2023-09-08T04:54:31;96482.91;;;19.32;57.61
10476;BME280;26166;48.264;11.436;2023-09-08T04:57:32;96473.06;;;19.33;57.73
10476;BME280;26166;48.264;11.436;2023-09-08T05:00:32;96478.38;;;19.33;57.56
10476;BME280;26166;48.264;11.436;2023-09-08T05:03:33;96478.81;;;19.30;57.76
10476;BME280;26166;48.264;11.436;2023-09-08T05:06:33;96482.09;;;19.32;57.63
10476;BME280;26166;48.264;11.436;2023-09-08T05:09:34;96488.22;;;19.32;57.32
10476;BME280;26166;48.264;11.436;2023-09-08T05:12:34;96484.31;;;19.35;57.31
10476;BME280;26166;48.264;11.436;2023-09-08T05:15:34;96498.47;;;19.35;57.19
10476;BME280;26166;48.264;11.436;2023-09-08T05:18:35;96488.00;;;19.34;57.21
10476;BME280;26166;48.264;11.436;2023-09-08T05:21:36;96489.84;;;19.33;57.19
10476;BME280;26166;48.264;11.436;2023-09-08T05:24:37;96491.69;;;19.33;57.13
10476;BME280;26166;48.264;11.436;2023-09-08T05:27:37;96490.88;;;19.32;57.19
10476;BME280;26166;48.264;11.436;2023-09-08T05:30:37;96493.56;;;19.32;57.18
10476;BME280;26166;48.264;11.436;2023-09-08T05:33:37;96501.53;;;19.32;57.24
10476;BME280;26166;48.264;11.436;2023-09-08T05:36:37;96499.91;;;19.31;57.26
10476;BME280;26166;48.264;11.436;2023-09-08T05:39:39;96510.56;;;19.31;57.10
10476;BME280;26166;48.264;11.436;2023-09-08T05:42:40;96500.97;;;19.30;57.22
10476;BME280;26166;48.264;11.436;2023-09-08T05:45:40;96506.31;;;19.24;57.52
10476;BME280;26166;48.264;11.436;2023-09-08T05:48:40;96512.34;;;19.12;57.78
10476;BME280;26166;48.264;11.436;2023-09-08T05:51:40;96507.00;;;19.12;57.96
10476;BME280;26166;48.264;11.436;2023-09-08T05:54:40;96508.84;;;19.12;57.89
10476;BME280;26166;48.264;11.436;2023-09-08T05:57:41;96508.84;;;19.12;58.22
10476;BME280;26166;48.264;11.436;2023-09-08T06:00:41;96517.44;;;19.14;57.89
10476;BME280;26166;48.264;11.436;2023-09-08T06:03:41;96519.88;;;19.15;58.14
10476;BME280;26166;48.264;11.436;2023-09-08T06:06:41;96516.19;;;19.16;58.05
10476;BME280;26166;48.264;11.436;2023-09-08T06:09:41;96517.03;;;19.17;58.23
10476;BME280;26166;48.264;11.436;2023-09-08T06:12:42;96515.97;;;19.18;58.30
10476;BME280;26166;48.264;11.436;2023-09-08T06:15:43;96519.69;;;19.17;58.41
10476;BME280;26166;48.264;11.436;2023-09-08T06:18:43;96523.34;;;19.16;58.65
10476;BME280;26166;48.264;11.436;2023-09-08T06:21:44;96522.34;;;19.17;58.67
10476;BME280;26166;48.264;11.436;2023-09-08T06:24:44;96521.50;;;19.16;58.76
10476;BME280;26166;48.264;11.436;2023-09-08T06:27:44;96529.50;;;19.16;58.85
10476;BME280;26166;48.264;11.436;2023-09-08T06:30:46;96526.00;;;19.16;59.01
10476;BME280;26166;48.264;11.436;2023-09-08T06:33:46;96527.66;;;19.17;59.15
10476;BME280;26166;48.264;11.436;2023-09-08T06:36:46;96530.53;;;19.15;59.25
10476;BME280;26166;48.264;11.436;2023-09-08T06:39:46;96526.00;;;19.16;59.27
10476;BME280;26166;48.264;11.436;2023-09-08T06:42:46;96528.91;;;19.14;59.46
10476;BME280;26166;48.264;11.436;2023-09-08T06:45:47;96527.06;;;19.15;59.61
10476;BME280;26166;48.264;11.436;2023-09-08T06:48:48;96534.00;;;19.16;59.56
10476;BME280;26166;48.264;11.436;2023-09-08T06:51:49;96528.69;;;19.16;59.77
10476;BME280;26166;48.264;11.436;2023-09-08T06:54:49;96532.38;;;19.15;59.98
10476;BME280;26166;48.264;11.436;2023-09-08T06:57:49;96529.72;;;19.15;60.29
10476;BME280;26166;48.264;11.436;2023-09-08T07:00:49;96527.66;;;19.17;60.05
10476;BME280;26166;48.264;11.436;2023-09-08T07:03:50;96531.97;;;19.18;60.08
10476;BME280;26166;48.264;11.436;2023-09-08T07:06:50;96531.72;;;19.20;60.24
10476;BME280;26166;48.264;11.436;2023-09-08T07:09:54;96528.03;;;19.21;60.23
10476;BME280;26166;48.264;11.436;2023-09-08T07:12:54;96523.53;;;19.21;60.37
10476;BME280;26166;48.264;11.436;2023-09-08T07:15:54;96522.50;;;19.22;60.48
10476;BME280;26166;48.264;11.436;2023-09-08T07:18:55;96534.78;;;19.23;60.30
10476;BME280;26166;48.264;11.436;2023-09-08T07:21:55;96536.22;;;19.26;60.53
10476;BME280;26166;48.264;11.436;2023-09-08T07:24:55;96544.81;;;19.28;60.52
10476;BME280;26166;48.264;11.436;2023-09-08T07:27:55;96538.25;;;19.30;60.61
10476;BME280;26166;48.264;11.436;2023-09-08T07:31:02;96538.00;;;19.32;60.44
10476;BME280;26166;48.264;11.436;2023-09-08T07:34:02;96532.47;;;19.33;60.70
10476;BME280;26166;48.264;11.436;2023-09-08T07:37:03;96527.94;;;19.34;60.49
10476;BME280;26166;48.264;11.436;2023-09-08T07:40:03;96522.44;;;19.35;60.64
10476;BME280;26166;48.264;11.436;2023-09-08T07:43:04;96526.72;;;19.36;61.02
10476;BME280;26166;48.264;11.436;2023-09-08T07:46:04;96526.50;;;19.38;60.91
10476;BME280;26166;48.264;11.436;2023-09-08T07:49:04;96531.63;;;19.39;61.09
10476;BME280;26166;48.264;11.436;2023-09-08T07:52:05;96538.56;;;19.40;61.08
10476;BME280;26166;48.264;11.436;2023-09-08T07:55:07;96534.06;;;19.41;61.06
10476;BME280;26166;48.264;11.436;2023-09-08T07:58:07;96534.88;;;19.41;60.96
10476;BME280;26166;48.264;11.436;2023-09-08T08:01:08;96538.16;;;19.44;60.96
10476;BME280;26166;48.264;11.436;2023-09-08T08:04:08;96542.44;;;19.45;61.18
10476;BME280;26166;48.264;11.436;2023-09-08T08:07:08;96544.06;;;19.46;61.37
10476;BME280;26166;48.264;11.436;2023-09-08T08:10:09;96547.31;;;19.48;60.94
10476;BME280;26166;48.264;11.436;2023-09-08T08:13:09;96544.66;;;19.48;60.99
10476;BME280;26166;48.264;11.436;2023-09-08T08:16:10;96539.31;;;19.48;61.13
10476;BME280;26166;48.264;11.436;2023-09-08T08:19:10;96540.97;;;19.49;60.93
10476;BME280;26166;48.264;11.436;2023-09-08T08:22:10;96540.97;;;19.49;61.22
10476;BME280;26166;48.264;11.436;2023-09-08T08:25:11;96535.66;;;19.49;61.29
10476;BME280;26166;48.264;11.436;2023-09-08T08:28:12;96538.31;;;19.49;61.54
10476;BME280;26166;48.264;11.436;2023-09-08T08:31:12;96529.06;;;19.51;61.37
10476;BME280;26166;48.264;11.436;2023-09-08T08:34:13;96532.34;;;19.53;61.18
10476;BME280;26166;48.264;11.436;2023-09-08T08:37:13;96531.06;;;19.56;61.43
10476;BME280;26166;48.264;11.436;2023-09-08T08:40:13;96529.44;;;19.55;61.24
10476;BME280;26166;48.264;11.436;2023-09-08T08:43:13;96531.88;;;19.56;61.17
10476;BME280;26166;48.264;11.436;2023-09-08T08:46:14;96531.69;;;19.58;61.20
10476;BME280;26166;48.264;11.436;2023-09-08T08:49:15;96538.66;;;19.59;61.30
10476;BME280;26166;48.264;11.436;2023-09-08T08:52:15;96534.78;;;19.61;61.38
10476;BME280;26166;48.264;11.436;2023-09-08T08:55:16;96530.25;;;19.62;61.23
10476;BME280;26166;48.264;11.436;2023-09-08T08:58:17;96529.44;;;19.61;61.12
10476;BME280;26166;48.264;11.436;2023-09-08T09:01:20;96530.25;;;19.62;61.11
10476;BME280;26166;48.264;11.436;2023-09-08T09:04:21;96524.13;;;19.61;61.37
10476;BME280;26166;48.264;11.436;2023-09-08T09:07:22;96529.22;;;19.63;61.75
10476;BME280;26166;48.264;11.436;2023-09-08T09:10:23;96527.16;;;19.65;61.34
10476;BME280;26166;48.264;11.436;2023-09-08T09:13:23;96527.94;;;19.65;61.31
10476;BME280;26166;48.264;11.436;2023-09-08T09:16:23;96520.81;;;19.66;61.87
10476;BME280;26166;48.264;11.436;2023-09-08T09:19:24;96516.28;;;19.67;61.28
10476;BME280;26166;48.264;11.436;2023-09-08T09:22:28;96509.09;;;19.67;61.31
10476;BME280;26166;48.264;11.436;2023-09-08T09:25:36;96509.91;;;19.68;61.48
10476;BME280;26166;48.264;11.436;2023-09-08T09:28:46;96509.09;;;19.67;61.96
10476;BME280;26166;48.264;11.436;2023-09-08T09:31:53;96520.56;;;19.68;61.72
10476;BME280;26166;48.264;11.436;2023-09-08T09:34:53;96515.00;;;19.69;61.69
10476;BME280;26166;48.264;11.436;2023-09-08T09:37:54;96515.00;;;19.69;61.55
10476;BME280;26166;48.264;11.436;2023-09-08T09:40:54;96507.84;;;19.70;61.98
10476;BME280;26166;48.264;11.436;2023-09-08T09:43:55;96504.75;;;19.73;62.58
10476;BME280;26166;48.264;11.436;2023-09-08T09:46:56;96504.31;;;19.76;62.16
10476;BME280;26166;48.264;11.436;2023-09-08T09:49:56;96505.13;;;19.76;62.30
10476;BME280;26166;48.264;11.436;2023-09-08T09:52:58;96507.78;;;19.76;61.92
10476;BME280;26166;48.264;11.436;2023-09-08T09:56:00;96502.47;;;19.76;62.27
10476;BME280;26166;48.264;11.436;2023-09-08T09:59:01;96498.19;;;19.75;62.01
10476;BME280;26166;48.264;11.436;2023-09-08T10:02:03;96500.84;;;19.75;62.51
10476;BME280;26166;48.264;11.436;2023-09-08T10:05:12;96496.53;;;19.74;62.35
10476;BME280;26166;48.264;11.436;2023-09-08T10:08:13;96499.81;;;19.76;62.49
10476;BME280;26166;48.264;11.436;2023-09-08T10:11:13;96496.31;;;19.76;62.63
10476;BME280;26166;48.264;11.436;2023-09-08T10:14:15;96498.19;;;19.75;62.64
10476;BME280;26166;48.264;11.436;2023-09-08T10:17:15;96492.84;;;19.75;62.43
10476;BME280;26166;48.264;11.436;2023-09-08T10:20:18;96493.66;;;19.76;62.93
10476;BME280;26166;48.264;11.436;2023-09-08T10:23:28;96483.00;;;19.76;62.81
10476;BME280;26166;48.264;11.436;2023-09-08T10:26:31;96487.06;;;19.78;63.34
10476;BME280;26166;48.264;11.436;2023-09-08T10:29:34;96482.53;;;19.79;62.98
10476;BME280;26166;48.264;11.436;2023-09-08T10:32:35;96486.41;;;19.83;63.12
10476;BME280;26166;48.264;11.436;2023-09-08T10:35:36;96484.56;;;19.83;62.92
10476;BME280;26166;48.264;11.436;2023-09-08T10:38:37;96476.56;;;19.83;62.61
10476;BME280;26166;48.264;11.436;2023-09-08T10:41:37;96480.41;;;19.87;63.10
10476;BME280;26166;48.264;11.436;2023-09-08T10:44:38;96479.75;;;19.92;63.50
10476;BME280;26166;48.264;11.436;2023-09-08T10:50:41;96470.47;;;20.01;63.11
10476;BME280;26166;48.264;11.436;2023-09-08T10:53:42;96470.00;;;20.04;62.83
10476;BME280;26166;48.264;11.436;2023-09-08T10:56:55;96477.78;;;20.06;63.10
10476;BME280;26166;48.264;11.436;2023-09-08T10:59:56;96473.66;;;20.10;63.56
10476;BME280;26166;48.264;11.436;2023-09-08T11:02:57;96476.47;;;20.15;63.28
10476;BME280;26166;48.264;11.436;2023-09-08T11:05:57;96483.41;;;20.16;62.96
10476;BME280;26166;48.264;11.436;2023-09-08T11:08:57;96478.91;;;20.16;62.95
10476;BME280;26166;48.264;11.436;2023-09-08T11:12:06;96479.72;;;20.17;63.24
10476;BME280;26166;48.264;11.436;2023-09-08T11:15:08;96470.91;;;20.16;63.24
10476;BME280;26166;48.264;11.436;2023-09-08T11:18:08;96478.09;;;20.16;63.36
10476;BME280;26166;48.264;11.436;2023-09-08T11:21:09;96480.16;;;20.14;63.18
10476;BME280;26166;48.264;11.436;2023-09-08T11:24:09;96491.41;;;20.16;63.35
10476;BME280;26166;48.264;11.436;2023-09-08T11:27:13;96480.75;;;20.16;63.22
10476;BME280;26166;48.264;11.436;2023-09-08T11:30:13;96481.34;;;20.18;63.63
10476;BME280;26166;48.264;11.436;2023-09-08T11:33:17;96469.84;;;20.17;63.40
10476;BME280;26166;48.264;11.436;2023-09-08T11:36:18;96472.66;;;20.23;63.87
10476;BME280;26166;48.264;11.436;2023-09-08T11:39:22;96466.00;;;20.32;63.48
10476;BME280;26166;48.264;11.436;2023-09-08T11:42:22;96463.84;;;20.40;63.29
10476;BME280;26166;48.264;11.436;2023-09-08T11:45:24;96466.69;;;20.46;63.02
10476;BME280;26166;48.264;11.436;2023-09-08T11:48:24;96464.63;;;20.48;62.65
10476;BME280;26166;48.264;11.436;2023-09-08T11:51:25;96468.72;;;20.50;62.60
10476;BME280;26166;48.264;11.436;2023-09-08T11:54:26;96464.19;;;20.51;62.58
10476;BME280;26166;48.264;11.436;2023-09-08T11:57:27;96471.78;;;20.47;62.94
10476;BME280;26166;48.264;11.436;2023-09-08T12:00:28;96464.69;;;20.41;62.82
10476;BME280;26166;48.264;11.436;2023-09-08T12:03:28;96461.84;;;20.36;62.84
10476;BME280;26166;48.264;11.436;2023-09-08T12:06:28;96464.16;;;20.32;63.13
10476;BME280;26166;48.264;11.436;2023-09-08T12:09:29;96464.59;;;20.29;62.74
10476;BME280;26166;48.264;11.436;2023-09-08T12:12:29;96459.72;;;20.26;63.59
10476;BME280;26166;48.264;11.436;2023-09-08T12:15:41;96465.28;;;20.25;63.53
10476;BME280;26166;48.264;11.436;2023-09-08T12:18:43;96455.41;;;20.25;63.59
10476;BME280;26166;48.264;11.436;2023-09-08T12:21:55;96452.97;;;20.24;63.23
10476;BME280;26166;48.264;11.436;2023-09-08T12:24:56;96451.31;;;20.23;63.35
10476;BME280;26166;48.264;11.436;2023-09-08T12:27:57;96448.91;;;20.21;63.47
10476;BME280;26166;48.264;11.436;2023-09-08T12:30:58;96448.66;;;20.23;63.75
10476;BME280;26166;48.264;11.436;2023-09-08T12:33:58;96444.66;;;20.32;63.69
10476;BME280;26166;48.264;11.436;2023-09-08T12:36:58;96438.81;;;20.41;63.60
10476;BME280;26166;48.264;11.436;2023-09-08T12:39:58;96439.69;;;20.54;63.05
10476;BME280;26166;48.264;11.436;2023-09-08T12:43:01;96438.38;;;20.63;62.67
10476;BME280;26166;48.264;11.436;2023-09-08T12:46:01;96433.63;;;20.65;62.34
10476;BME280;26166;48.264;11.436;2023-09-08T12:49:01;96437.22;;;20.71;62.68
10476;BME280;26166;48.264;11.436;2023-09-08T12:52:01;96434.13;;;20.74;62.15
10476;BME280;26166;48.264;11.436;2023-09-08T12:55:02;96430.63;;;20.73;62.01
10476;BME280;26166;48.264;11.436;2023-09-08T12:58:02;96431.88;;;20.71;62.61
10476;BME280;26166;48.264;11.436;2023-09-08T13:01:04;96435.59;;;20.70;62.15
10476;BME280;26166;48.264;11.436;2023-09-08T13:04:06;96434.41;;;20.65;62.66
10476;BME280;26166;48.264;11.436;2023-09-08T13:07:07;96434.06;;;20.62;62.55
10476;BME280;26166;48.264;11.436;2023-09-08T13:10:07;96435.34;;;20.59;62.54
10476;BME280;26166;48.264;11.436;2023-09-08T13:13:08;96432.28;;;20.56;62.28
10476;BME280;26166;48.264;11.436;2023-09-08T13:16:08;96430.06;;;20.53;62.98
10476;BME280;26166;48.264;11.436;2023-09-08T13:19:08;96430.31;;;20.51;62.93
10476;BME280;26166;48.264;11.436;2023-09-08T13:22:08;96425.19;;;20.50;63.16
10476;BME280;26166;48.264;11.436;2023-09-08T13:25:08;96429.25;;;20.52;63.12
10476;BME280;26166;48.264;11.436;2023-09-08T13:28:09;96426.34;;;20.54;63.33
10476;BME280;26166;48.264;11.436;2023-09-08T13:31:09;96418.94;;;20.56;63.52
10476;BME280;26166;48.264;11.436;2023-09-08T13:34:09;96423.00;;;20.58;63.12
10476;BME280;26166;48.264;11.436;2023-09-08T13:37:09;96409.91;;;20.57;63.43
10476;BME280;26166;48.264;11.436;2023-09-08T13:40:09;96413.63;;;20.56;63.39
10476;BME280;26166;48.264;11.436;2023-09-08T13:43:10;96400.50;;;20.54;62.98
10476;BME280;26166;48.264;11.436;2023-09-08T13:46:11;96400.84;;;20.58;63.92
10476;BME280;26166;48.264;11.436;2023-09-08T13:49:11;96397.88;;;20.66;64.12
10476;BME280;26166;48.264;11.436;2023-09-08T13:52:11;96399.19;;;20.75;63.67
10476;BME280;26166;48.264;11.436;2023-09-08T13:55:11;96401.28;;;20.85;63.45
10476;BME280;26166;48.264;11.436;2023-09-08T13:58:12;96393.44;;;20.90;63.05
10476;BME280;26166;48.264;11.436;2023-09-08T14:01:12;96401.56;;;20.95;63.33
10476;BME280;26166;48.264;11.436;2023-09-08T14:04:12;96394.13;;;20.97;63.06
10476;BME280;26166;48.264;11.436;2023-09-08T14:07:12;96390.00;;;21.13;62.86
10476;BME280;26166;48.264;11.436;2023-09-08T14:10:13;96391.16;;;21.29;62.19
10476;BME280;26166;48.264;11.436;2023-09-08T14:13:14;96384.81;;;21.41;61.63
10476;BME280;26166;48.264;11.436;2023-09-08T14:16:14;96382.59;;;21.50;61.41
10476;BME280;26166;48.264;11.436;2023-09-08T14:19:14;96387.03;;;21.56;61.15
10476;BME280;26166;48.264;11.436;2023-09-08T14:22:14;96386.91;;;21.63;60.88
10476;BME280;26166;48.264;11.436;2023-09-08T14:25:15;96377.94;;;21.69;60.61
10476;BME280;26166;48.264;11.436;2023-09-08T14:28:16;96383.09;;;21.71;60.65
10476;BME280;26166;48.264;11.436;2023-09-08T14:31:16;96387.97;;;21.74;60.80
10476;BME280;26166;48.264;11.436;2023-09-08T14:34:16;96377.50;;;21.72;60.49
10476;BME280;26166;48.264;11.436;2023-09-08T14:37:16;96381.22;;;21.71;60.92
10476;BME280;26166;48.264;11.436;2023-09-08T14:40:16;96382.47;;;21.69;61.09
10476;BME280;26166;48.264;11.436;2023-09-08T14:43:17;96377.38;;;21.67;60.87
10476;BME280;26166;48.264;11.436;2023-09-08T14:46:17;96371.47;;;21.65;61.11
10476;BME280;26166;48.264;11.436;2023-09-08T14:49:17;96375.41;;;21.62;61.21
10476;BME280;26166;48.264;11.436;2023-09-08T14:52:17;96375.66;;;21.61;60.95
10476;BME280;26166;48.264;11.436;2023-09-08T14:55:20;96369.97;;;21.57;61.11
10476;BME280;26166;48.264;11.436;2023-09-08T14:58:20;96375.50;;;21.56;61.25
10476;BME280;26166;48.264;11.436;2023-09-08T15:01:20;96372.28;;;21.54;61.05
10476;BME280;26166;48.264;11.436;2023-09-08T15:04:21;96371.91;;;21.50;61.46
10476;BME280;26166;48.264;11.436;2023-09-08T15:07:21;96370.75;;;21.46;61.58
10476;BME280;26166;48.264;11.436;2023-09-08T15:10:21;96366.59;;;21.38;61.77
10476;BME280;26166;48.264;11.436;2023-09-08T15:13:21;96372.25;;;21.30;61.72
10476;BME280;26166;48.264;11.436;2023-09-08T15:16:22;96378.97;;;21.21;62.46
10476;BME280;26166;48.264;11.436;2023-09-08T15:19:22;96370.25;;;21.14;62.91
10476;BME280;26166;48.264;11.436;2023-09-08T15:22:22;96369.31;;;21.08;62.85
10476;BME280;26166;48.264;11.436;2023-09-08T15:25:22;96379.19;;;21.08;62.59
10476;BME280;26166;48.264;11.436;2023-09-08T15:28:22;96370.56;;;21.06;63.05
10476;BME280;26166;48.264;11.436;2023-09-08T15:31:23;96366.53;;;21.03;62.58
10476;BME280;26166;48.264;11.436;2023-09-08T15:34:23;96366.97;;;21.00;63.15
10476;BME280;26166;48.264;11.436;2023-09-08T15:37:23;96373.56;;;20.98;63.00
10476;BME280;26166;48.264;11.436;2023-09-08T15:40:24;96368.72;;;20.95;63.09
10476;BME280;26166;48.264;11.436;2023-09-08T15:43:24;96373.69;;;20.91;63.65
10476;BME280;26166;48.264;11.436;2023-09-08T15:46:24;96370.66;;;20.87;63.86
10476;BME280;26166;48.264;11.436;2023-09-08T15:49:25;96370.09;;;20.85;63.64
10476;BME280;26166;48.264;11.436;2023-09-08T15:52:26;96362.28;;;20.84;63.92